This is the latest recevied weather packets stored in our database for station/object KM4CBK. If no packets are shown the sender has not sent any weather packets the latest 10 day(s).
| Time | Temp. | Humidity | Pressure | Rain* | Wind** | Luminosity | Snow |
|---|---|---|---|---|---|---|---|
| 1778003703 | 26.11° C | 55% | 1013.6 hPa | 0 mm | - | 672 W/m² | - |
| 1778003400 | 26.11° C | 51% | 1013.7 hPa | 0 mm | - | 706 W/m² | - |
| 1778003098 | 27.22° C | 49% | 1013.8 hPa | 0 mm | - | 526 W/m² | - |
| 1778002793 | 25.56° C | 53% | 1014.1 hPa | 0 mm | - | 582 W/m² | - |
| 1778002490 | 25.56° C | 51% | 1014.1 hPa | 0 mm | - | 565 W/m² | - |
| 1778002187 | 26.11° C | 54% | 1014 hPa | 0 mm | - | 695 W/m² | - |
| 1778001886 | 25.56° C | 57% | 1014.2 hPa | 0 mm | - | 684 W/m² | - |
| 1778001584 | 26.11° C | 53% | 1014.2 hPa | 0 mm | - | 606 W/m² | - |
| 1778001282 | 25.56° C | 56% | 1014.1 hPa | 0 mm | - | 537 W/m² | - |
| 1778000978 | 26.11° C | 54% | 1014.3 hPa | 0 mm | - | 651 W/m² | - |
| 1778000675 | 25° C | 56% | 1014.1 hPa | 0 mm | - | 625 W/m² | - |
| 1778000370 | 25.56° C | 55% | 1014.3 hPa | 0 mm | - | 648 W/m² | - |
| 1778000067 | 25.56° C | 55% | 1014.4 hPa | 0 mm | - | 658 W/m² | - |
| 1777999762 | 25.56° C | 52% | 1014.3 hPa | 0 mm | - | 666 W/m² | - |
| 1777999459 | 25° C | 56% | 1014.4 hPa | 0 mm | - | 668 W/m² | - |
| 1777999157 | 24.44° C | 56% | 1014.3 hPa | 0 mm | - | 628 W/m² | - |
| 1777998856 | 25.56° C | 54% | 1014.4 hPa | 0 mm | - | 569 W/m² | - |
| 1777998554 | 24.44° C | 54% | 1014.5 hPa | 0 mm | - | 681 W/m² | - |
| 1777998249 | 24.44° C | 55% | 1014.3 hPa | 0 mm | - | 656 W/m² | - |
| 1777997947 | 23.89° C | 55% | 1014.5 hPa | 0 mm | - | 669 W/m² | - |
| 1777997644 | 23.89° C | 57% | 1014.6 hPa | 0 mm | - | 647 W/m² | - |
| 1777997341 | 23.33° C | 57% | 1014.8 hPa | 0 mm | - | 651 W/m² | - |
| 1777997039 | 23.89° C | 60% | 1014.8 hPa | 0 mm | - | 574 W/m² | - |
| 1777996735 | 23.33° C | 60% | 1014.8 hPa | 0 mm | - | 590 W/m² | - |
| 1777996431 | 23.89° C | 55% | 1014.8 hPa | 0 mm | - | 571 W/m² | - |
* Rain latest hour (hover to see other rain measurements)
** Current wind speed in m/s (hover to see current wind gust speed)